Time;durP1;ratioP1;P1;durP2;ratioP2;P2;SDS_P1;SDS_P2;PMS_P1;PMS_P2;Temp;Humidity;BMP_temperature;BMP_pressure;BME280_temperature;BME280_humidity;BME280_pressure;Samples;Min_cycle;Max_cycle;Signal;HPM_P1;HPM_P2
2022/04/15 00:00:10;;;;;;;;;;;14.10;99.90;;;;;;5074527;28;19908;-40
2022/04/15 00:02:36;;;;;;;;;;;14.10;99.90;;;;;;5075490;28;20278;-41
2022/04/15 00:05:02;;;;;;;;;;;14.00;99.90;;;;;;5076134;28;19998;-42
2022/04/15 00:07:28;;;;;;;;;;;14.00;99.90;;;;;;5075801;28;19951;-42
2022/04/15 00:09:53;;;;;;;;;;;14.00;99.90;;;;;;5075786;28;20332;-41
2022/04/15 00:12:27;;;;;;;;;;;14.00;99.90;;;;;;5075602;28;19963;-42
2022/04/15 00:14:54;;;;;;;;;;;14.10;99.90;;;;;;5075573;28;20271;-42
2022/04/15 00:17:19;;;;;;;;;;;13.90;99.90;;;;;;5075558;28;19913;-42
2022/04/15 00:19:47;;;;;;;;;;;13.80;99.90;;;;;;5075552;28;19909;-43
2022/04/15 00:22:12;;;;;;;;;;;13.80;99.90;;;;;;5075580;28;19975;-41
2022/04/15 00:24:38;;;;;;;;;;;13.70;99.90;;;;;;5075213;28;20030;-42
2022/04/15 00:27:04;;;;;;;;;;;13.60;99.90;;;;;;5075109;28;20410;-43
2022/04/15 00:29:29;;;;;;;;;;;13.70;99.90;;;;;;5107881;28;19933;-41
2022/04/15 00:31:55;;;;;;;;;;;13.70;99.90;;;;;;5075152;28;20362;-43
2022/04/15 00:34:20;;;;;;;;;;;13.70;99.90;;;;;;5074876;28;19913;-44
2022/04/15 00:36:46;;;;;;;;;;;13.80;99.90;;;;;;5075326;28;20409;-40
2022/04/15 00:39:11;;;;;;;;;;;13.80;99.90;;;;;;5075473;28;19909;-43
2022/04/15 00:41:40;;;;;;;;;;;13.90;99.90;;;;;;5074144;28;19912;-42
2022/04/15 00:44:05;;;;;;;;;;;13.70;99.90;;;;;;5074831;28;19909;-41
2022/04/15 00:46:31;;;;;;;;;;;13.50;99.90;;;;;;5074973;28;19962;-42
2022/04/15 00:48:56;;;;;;;;;;;13.50;99.90;;;;;;5074885;28;20328;-42
2022/04/15 00:51:22;;;;;;;;;;;13.40;99.90;;;;;;5074817;28;19950;-41
2022/04/15 00:53:49;;;;;;;;;;;13.50;99.90;;;;;;5074476;28;19915;-42
2022/04/15 00:56:15;;;;;;;;;;;13.40;99.90;;;;;;5074912;28;19919;-42
2022/04/15 00:58:41;;;;;;;;;;;13.40;99.90;;;;;;5074305;28;20342;-42
2022/04/15 01:01:07;;;;;;;;;;;13.50;99.90;;;;;;5074404;28;19908;-43
2022/04/15 01:03:34;;;;;;;;;;;13.50;99.90;;;;;;5074727;28;20046;-42
2022/04/15 01:05:59;;;;;;;;;;;13.50;99.90;;;;;;5074706;28;19965;-43
2022/04/15 01:08:28;;;;;;;;;;;13.40;99.90;;;;;;5074948;28;19960;-42
2022/04/15 01:10:56;;;;;;;;;;;13.40;99.90;;;;;;5073276;28;20007;-43
2022/04/15 01:13:21;;;;;;;;;;;13.40;99.90;;;;;;5074460;28;20271;-41
2022/04/15 01:15:48;;;;;;;;;;;13.40;99.90;;;;;;5074099;28;20386;-42
2022/04/15 01:18:14;;;;;;;;;;;13.40;99.90;;;;;;5074453;28;19981;-43
2022/04/15 01:20:41;;;;;;;;;;;13.50;99.90;;;;;;5074085;28;20310;-44
2022/04/15 01:23:09;;;;;;;;;;;13.40;99.90;;;;;;5074374;28;19912;-43
2022/04/15 01:25:36;;;;;;;;;;;13.50;99.90;;;;;;5073990;28;19962;-45
2022/04/15 01:28:02;;;;;;;;;;;13.50;99.90;;;;;;5074185;28;19913;-42
2022/04/15 01:30:27;;;;;;;;;;;13.60;99.90;;;;;;5074078;28;19908;-42
2022/04/15 01:32:53;;;;;;;;;;;13.50;99.90;;;;;;5073715;28;19921;-42
2022/04/15 01:35:19;;;;;;;;;;;13.50;99.90;;;;;;5073631;28;19916;-42
2022/04/15 01:37:46;;;;;;;;;;;13.40;99.90;;;;;;5074007;28;19912;-42
2022/04/15 01:40:13;;;;;;;;;;;13.40;99.90;;;;;;5073904;28;20362;-43
2022/04/15 01:42:39;;;;;;;;;;;13.40;99.90;;;;;;5073971;28;19912;-42
2022/04/15 01:45:05;;;;;;;;;;;13.40;99.90;;;;;;5073667;28;19961;-41
2022/04/15 01:47:30;;;;;;;;;;;13.30;99.90;;;;;;5073910;28;20024;-42
2022/04/15 01:49:56;;;;;;;;;;;13.40;99.90;;;;;;5073844;28;20073;-42
2022/04/15 01:52:22;;;;;;;;;;;13.40;99.90;;;;;;5073489;28;19915;-42
2022/04/15 01:54:47;;;;;;;;;;;13.40;99.90;;;;;;5073232;28;19913;-42
2022/04/15 01:57:13;;;;;;;;;;;13.40;99.90;;;;;;5073584;28;19913;-41
2022/04/15 01:59:39;;;;;;;;;;;13.40;99.90;;;;;;5073775;28;19964;-43
2022/04/15 02:02:05;;;;;;;;;;;13.30;99.90;;;;;;5073430;28;19909;-42
2022/04/15 02:04:30;;;;;;;;;;;13.30;99.90;;;;;;5073862;28;19912;-42
2022/04/15 02:06:56;;;;;;;;;;;13.30;99.90;;;;;;5073558;28;19908;-47
2022/04/15 02:09:22;;;;;;;;;;;13.30;99.90;;;;;;5073708;28;20266;-42
2022/04/15 02:11:48;;;;;;;;;;;13.30;99.90;;;;;;5073794;28;19909;-43
2022/04/15 02:14:14;;;;;;;;;;;13.20;99.90;;;;;;5073429;28;19916;-43
2022/04/15 02:16:40;;;;;;;;;;;13.20;99.90;;;;;;5073584;28;19929;-42
2022/04/15 02:19:06;;;;;;;;;;;13.30;99.90;;;;;;5073688;28;19908;-45
2022/04/15 02:21:32;;;;;;;;;;;13.30;99.90;;;;;;5073515;28;19916;-44
2022/04/15 02:23:57;;;;;;;;;;;13.30;99.90;;;;;;5073578;28;19916;-42
2022/04/15 02:26:23;;;;;;;;;;;13.20;99.90;;;;;;5073338;28;19909;-43
2022/04/15 02:28:48;;;;;;;;;;;13.20;99.90;;;;;;5073766;28;19912;-42
2022/04/15 02:31:14;;;;;;;;;;;13.30;99.90;;;;;;5073412;28;20029;-42
2022/04/15 02:33:39;;;;;;;;;;;13.40;99.90;;;;;;5073638;28;19974;-42
2022/04/15 02:36:05;;;;;;;;;;;13.30;99.90;;;;;;5073595;28;19956;-42
2022/04/15 02:38:30;;;;;;;;;;;13.20;99.90;;;;;;5073258;28;20282;-42
2022/04/15 02:40:56;;;;;;;;;;;13.10;99.90;;;;;;5073358;28;19916;-41
2022/04/15 02:43:25;;;;;;;;;;;13.10;99.90;;;;;;5073793;28;19908;-48
2022/04/15 02:45:50;;;;;;;;;;;13.20;99.90;;;;;;5073463;28;19963;-44
2022/04/15 02:48:16;;;;;;;;;;;13.20;99.90;;;;;;5073508;28;19913;-43
2022/04/15 02:50:42;;;;;;;;;;;13.20;99.90;;;;;;5073338;28;20378;-41
2022/04/15 02:53:07;;;;;;;;;;;13.20;99.90;;;;;;5073297;28;19983;-41
2022/04/15 02:55:33;;;;;;;;;;;13.20;99.90;;;;;;5072799;28;20006;-44
2022/04/15 02:57:58;;;;;;;;;;;13.20;99.90;;;;;;5072902;28;19912;-43
2022/04/15 03:00:24;;;;;;;;;;;13.10;99.90;;;;;;5072922;28;19914;-42
2022/04/15 03:02:49;;;;;;;;;;;13.10;99.90;;;;;;5073457;28;20270;-42
2022/04/15 03:05:15;;;;;;;;;;;13.10;99.90;;;;;;5073832;28;19913;-42
2022/04/15 03:07:40;;;;;;;;;;;13.10;99.90;;;;;;5076449;28;20027;-42
2022/04/15 03:10:07;;;;;;;;;;;13.10;99.90;;;;;;5076520;28;19923;-41
2022/04/15 03:12:36;;;;;;;;;;;13.10;99.90;;;;;;5076351;28;19915;-41
2022/04/15 03:15:05;;;;;;;;;;;13.10;99.90;;;;;;5076452;28;20370;-42
2022/04/15 03:17:31;;;;;;;;;;;13.00;99.90;;;;;;5076747;28;20379;-42
2022/04/15 03:19:57;;;;;;;;;;;13.10;99.90;;;;;;5076652;28;19909;-43
2022/04/15 03:22:23;;;;;;;;;;;13.10;99.90;;;;;;5076668;28;20331;-43
2022/04/15 03:24:50;;;;;;;;;;;13.10;99.90;;;;;;5076202;28;19912;-42
2022/04/15 03:27:16;;;;;;;;;;;13.10;99.90;;;;;;5076329;28;20437;-44
2022/04/15 03:29:43;;;;;;;;;;;13.10;99.90;;;;;;5092163;28;19908;-41
2022/04/15 03:32:09;;;;;;;;;;;13.10;99.90;;;;;;5075007;28;19961;-43
2022/04/15 03:34:34;;;;;;;;;;;13.10;99.90;;;;;;5076463;28;20388;-43
2022/04/15 03:37:00;;;;;;;;;;;13.20;99.90;;;;;;5076144;28;19908;-42
2022/04/15 03:39:25;;;;;;;;;;;13.10;99.90;;;;;;5076298;28;19932;-42
2022/04/15 03:41:51;;;;;;;;;;;13.10;99.90;;;;;;5076262;28;20271;-42
2022/04/15 03:44:16;;;;;;;;;;;13.10;99.90;;;;;;5076137;28;19913;-42
2022/04/15 03:46:42;;;;;;;;;;;13.10;99.90;;;;;;5075824;28;19908;-42
2022/04/15 03:49:08;;;;;;;;;;;13.10;99.90;;;;;;5076080;28;20327;-42
2022/04/15 03:51:34;;;;;;;;;;;13.00;99.90;;;;;;5075837;28;20263;-42
2022/04/15 03:53:59;;;;;;;;;;;13.10;99.90;;;;;;5076011;28;20044;-44
2022/04/15 03:56:25;;;;;;;;;;;13.10;99.90;;;;;;5075656;28;20385;-42
2022/04/15 03:58:50;;;;;;;;;;;13.10;99.90;;;;;;5075618;28;19913;-42
2022/04/15 04:01:16;;;;;;;;;;;13.10;99.90;;;;;;5075951;28;19908;-42
2022/04/15 04:03:41;;;;;;;;;;;13.10;99.90;;;;;;5075486;28;20291;-42
2022/04/15 04:06:07;;;;;;;;;;;13.10;99.90;;;;;;5075620;28;20362;-42
2022/04/15 04:08:32;;;;;;;;;;;13.10;99.90;;;;;;5075719;28;19908;-43
2022/04/15 04:10:58;;;;;;;;;;;13.00;99.90;;;;;;5075693;28;19913;-42
2022/04/15 04:13:23;;;;;;;;;;;13.00;99.90;;;;;;5075552;28;19908;-43
2022/04/15 04:15:49;;;;;;;;;;;13.10;99.90;;;;;;5074727;28;19909;-44
2022/04/15 04:18:17;;;;;;;;;;;13.00;99.90;;;;;;5075399;28;20276;-40
2022/04/15 04:20:43;;;;;;;;;;;13.00;99.90;;;;;;5075421;28;19909;-42
2022/04/15 04:23:09;;;;;;;;;;;13.00;99.90;;;;;;5075023;28;19912;-42
2022/04/15 04:25:34;;;;;;;;;;;12.90;99.90;;;;;;5075111;28;19908;-42
2022/04/15 04:28:00;;;;;;;;;;;12.90;99.90;;;;;;5075176;28;19912;-42
2022/04/15 04:30:25;;;;;;;;;;;12.90;99.90;;;;;;5075160;28;19909;-41
2022/04/15 04:32:51;;;;;;;;;;;13.00;99.90;;;;;;5074986;28;20000;-41
2022/04/15 04:35:18;;;;;;;;;;;13.00;99.90;;;;;;5075017;28;19997;-43
2022/04/15 04:37:44;;;;;;;;;;;12.90;99.90;;;;;;5074824;28;20268;-41
2022/04/15 04:40:10;;;;;;;;;;;12.90;99.90;;;;;;5074832;28;20450;-41
2022/04/15 04:42:35;;;;;;;;;;;12.90;99.90;;;;;;5075116;28;20275;-40
2022/04/15 04:45:01;;;;;;;;;;;12.90;99.90;;;;;;5074976;28;20243;-41
2022/04/15 04:47:26;;;;;;;;;;;12.90;99.90;;;;;;5075059;28;19916;-41
2022/04/15 04:49:52;;;;;;;;;;;12.80;99.90;;;;;;5074646;28;19951;-41
2022/04/15 04:52:18;;;;;;;;;;;12.80;99.90;;;;;;5074644;28;19908;-44
2022/04/15 04:54:44;;;;;;;;;;;12.80;99.90;;;;;;5073405;28;20069;-41
2022/04/15 04:57:09;;;;;;;;;;;12.90;99.90;;;;;;5074395;28;19998;-43
2022/04/15 04:59:35;;;;;;;;;;;12.90;99.90;;;;;;5074337;28;20286;-41
2022/04/15 05:02:00;;;;;;;;;;;13.00;99.90;;;;;;5074508;28;19916;-41
2022/04/15 05:04:26;;;;;;;;;;;12.90;99.90;;;;;;5074194;28;19908;-41
2022/04/15 05:06:52;;;;;;;;;;;12.90;99.90;;;;;;5074354;28;19908;-42
2022/04/15 05:09:17;;;;;;;;;;;12.90;99.90;;;;;;5074400;28;19931;-42
2022/04/15 05:11:43;;;;;;;;;;;12.80;99.90;;;;;;5074152;28;19989;-42
2022/04/15 05:14:08;;;;;;;;;;;12.80;99.90;;;;;;5073844;28;20379;-42
2022/04/15 05:16:34;;;;;;;;;;;12.80;99.90;;;;;;5074092;28;20011;-42
2022/04/15 05:18:59;;;;;;;;;;;12.80;99.90;;;;;;5073845;28;19909;-42
2022/04/15 05:21:25;;;;;;;;;;;12.90;99.90;;;;;;5074007;28;19950;-41
2022/04/15 05:23:50;;;;;;;;;;;13.00;99.90;;;;;;5073947;28;19987;-44
2022/04/15 05:26:16;;;;;;;;;;;13.10;99.90;;;;;;5073669;28;19919;-42
2022/04/15 05:28:42;;;;;;;;;;;13.20;99.90;;;;;;5073593;28;20344;-43
2022/04/15 05:31:08;;;;;;;;;;;13.20;99.90;;;;;;5074194;28;19912;-41
2022/04/15 05:33:33;;;;;;;;;;;13.10;99.90;;;;;;5074013;28;19948;-42
2022/04/15 05:35:59;;;;;;;;;;;13.10;99.90;;;;;;5073696;28;20355;-42
2022/04/15 05:38:24;;;;;;;;;;;13.10;99.90;;;;;;5074059;28;20368;-41
2022/04/15 05:40:50;;;;;;;;;;;13.00;99.90;;;;;;5073530;28;19991;-41
2022/04/15 05:43:15;;;;;;;;;;;13.00;99.90;;;;;;5089247;28;20347;-43
2022/04/15 05:45:41;;;;;;;;;;;13.10;99.90;;;;;;5073492;28;19944;-41
2022/04/15 05:48:07;;;;;;;;;;;13.10;99.90;;;;;;5073491;28;19908;-42
2022/04/15 05:50:32;;;;;;;;;;;13.20;99.90;;;;;;5073732;28;19916;-41
2022/04/15 05:52:58;;;;;;;;;;;13.10;99.90;;;;;;5073463;28;19962;-45
2022/04/15 05:55:23;;;;;;;;;;;13.10;99.90;;;;;;5073601;28;20363;-41
2022/04/15 05:57:49;;;;;;;;;;;13.10;99.90;;;;;;5073802;28;19974;-42
2022/04/15 06:00:14;;;;;;;;;;;13.00;99.90;;;;;;5073656;28;19962;-42
2022/04/15 06:02:40;;;;;;;;;;;13.10;99.90;;;;;;5073339;28;19952;-43
2022/04/15 06:05:06;;;;;;;;;;;13.20;99.90;;;;;;5073358;28;20263;-41
2022/04/15 06:07:31;;;;;;;;;;;13.30;99.90;;;;;;5073283;28;20007;-41
2022/04/15 06:09:58;;;;;;;;;;;13.40;99.90;;;;;;5073368;28;19955;-41
2022/04/15 06:12:54;;;;;;;;;;;13.30;99.90;;;;;;5072972;28;20347;-41
2022/04/15 06:15:31;;;;;;;;;;;13.30;99.90;;;;;;5073262;28;19917;-42
2022/04/15 06:17:57;;;;;;;;;;;13.20;99.90;;;;;;5073341;28;19916;-41
2022/04/15 06:20:23;;;;;;;;;;;13.10;99.90;;;;;;5073664;28;19927;-41
2022/04/15 06:22:49;;;;;;;;;;;13.10;99.90;;;;;;5073155;28;19913;-41
2022/04/15 06:25:15;;;;;;;;;;;13.20;99.90;;;;;;5073434;28;20366;-42
2022/04/15 06:27:40;;;;;;;;;;;13.30;99.90;;;;;;5072953;28;19909;-42
2022/04/15 06:30:07;;;;;;;;;;;13.30;99.90;;;;;;5072965;28;19912;-41
2022/04/15 06:32:35;;;;;;;;;;;13.40;99.90;;;;;;5073179;28;19927;-42
2022/04/15 06:35:02;;;;;;;;;;;13.40;99.90;;;;;;5072934;28;19919;-41
2022/04/15 06:37:27;;;;;;;;;;;13.40;99.90;;;;;;5073321;28;19920;-42
2022/04/15 06:39:53;;;;;;;;;;;13.40;99.90;;;;;;5074587;28;19908;-42
2022/04/15 06:42:21;;;;;;;;;;;13.50;99.90;;;;;;5076897;28;19916;-44
2022/04/15 06:44:47;;;;;;;;;;;13.60;99.90;;;;;;5076857;28;19915;-42
2022/04/15 06:47:13;;;;;;;;;;;13.70;99.90;;;;;;5076770;28;19999;-41
2022/04/15 06:49:38;;;;;;;;;;;13.80;99.90;;;;;;5076724;28;19913;-42
2022/04/15 06:52:04;;;;;;;;;;;13.80;99.90;;;;;;5076430;28;19909;-42
2022/04/15 06:54:30;;;;;;;;;;;13.70;99.90;;;;;;5076295;28;20019;-42
2022/04/15 06:56:55;;;;;;;;;;;13.70;99.90;;;;;;5092386;28;19913;-42
2022/04/15 06:59:21;;;;;;;;;;;13.90;99.90;;;;;;5076785;28;19909;-42
2022/04/15 07:01:46;;;;;;;;;;;13.90;99.90;;;;;;5109067;28;19909;-42
2022/04/15 07:04:12;;;;;;;;;;;14.10;99.90;;;;;;5076405;28;19915;-42
2022/04/15 07:06:37;;;;;;;;;;;14.00;99.90;;;;;;5076884;28;19909;-42
2022/04/15 07:09:03;;;;;;;;;;;13.80;99.90;;;;;;5076606;28;19909;-42
2022/04/15 07:11:28;;;;;;;;;;;13.80;99.90;;;;;;5076305;28;20244;-43
2022/04/15 07:13:54;;;;;;;;;;;13.70;99.90;;;;;;5076427;28;19970;-42
2022/04/15 07:16:19;;;;;;;;;;;13.90;99.90;;;;;;5076540;28;19919;-42
2022/04/15 07:18:45;;;;;;;;;;;13.70;99.90;;;;;;5076675;28;20454;-42
2022/04/15 07:21:11;;;;;;;;;;;13.70;99.90;;;;;;5076036;28;19912;-42
2022/04/15 07:23:36;;;;;;;;;;;13.70;99.90;;;;;;5076048;28;20286;-43
2022/04/15 07:26:02;;;;;;;;;;;13.70;99.90;;;;;;5076083;28;19909;-42
2022/04/15 07:28:28;;;;;;;;;;;13.80;99.90;;;;;;5076739;28;19931;-42
2022/04/15 07:30:53;;;;;;;;;;;13.80;99.90;;;;;;5076336;28;19954;-41
2022/04/15 07:33:19;;;;;;;;;;;13.80;99.90;;;;;;5075560;28;20296;-43
2022/04/15 07:35:45;;;;;;;;;;;14.00;99.90;;;;;;5075630;28;19923;-44
2022/04/15 07:38:11;;;;;;;;;;;13.90;99.90;;;;;;5109038;28;19908;-43
2022/04/15 07:40:36;;;;;;;;;;;14.10;99.90;;;;;;5075892;28;20363;-43
2022/04/15 07:43:02;;;;;;;;;;;14.10;99.90;;;;;;5075693;28;19915;-43
2022/04/15 07:45:28;;;;;;;;;;;14.30;99.90;;;;;;5075870;28;19962;-42
2022/04/15 07:47:53;;;;;;;;;;;14.30;99.90;;;;;;5075413;28;19915;-41
2022/04/15 07:50:24;;;;;;;;;;;14.40;99.90;;;;;;5075747;28;20331;-44
2022/04/15 07:52:50;;;;;;;;;;;14.60;99.90;;;;;;5075741;28;19912;-42
2022/04/15 07:55:16;;;;;;;;;;;14.80;99.90;;;;;;5075320;28;19919;-41
2022/04/15 07:57:41;;;;;;;;;;;14.70;99.90;;;;;;5075709;28;20279;-44
2022/04/15 08:00:07;;;;;;;;;;;15.00;99.90;;;;;;5075661;28;19909;-42
2022/04/15 08:02:33;;;;;;;;;;;15.00;99.90;;;;;;5075691;28;19952;-41
2022/04/15 08:04:58;;;;;;;;;;;14.80;99.90;;;;;;5107816;28;19959;-42
2022/04/15 08:07:24;;;;;;;;;;;14.80;99.90;;;;;;5075190;28;19954;-41
2022/04/15 08:09:50;;;;;;;;;;;15.00;99.90;;;;;;5075184;28;20011;-43
2022/04/15 08:12:15;;;;;;;;;;;15.50;99.90;;;;;;5075339;28;19908;-43
2022/04/15 08:14:41;;;;;;;;;;;15.70;99.90;;;;;;5075288;28;19999;-42
2022/04/15 08:17:07;;;;;;;;;;;15.80;99.90;;;;;;5075458;28;19913;-42
2022/04/15 08:19:33;;;;;;;;;;;15.70;99.90;;;;;;5073760;28;19916;-43
2022/04/15 08:21:59;;;;;;;;;;;15.70;99.90;;;;;;5075121;28;19912;-42
2022/04/15 08:24:24;;;;;;;;;;;15.80;99.90;;;;;;5074913;28;19915;-41
2022/04/15 08:26:53;;;;;;;;;;;15.90;99.90;;;;;;5074884;28;19908;-44
2022/04/15 08:29:18;;;;;;;;;;;15.90;99.90;;;;;;5075024;28;19919;-44
2022/04/15 08:31:44;;;;;;;;;;;16.00;99.90;;;;;;5074725;28;20294;-41
2022/04/15 08:34:09;;;;;;;;;;;16.20;99.90;;;;;;5074920;28;19973;-43
2022/04/15 08:36:35;;;;;;;;;;;16.20;99.90;;;;;;5075016;28;19999;-44
2022/04/15 08:39:01;;;;;;;;;;;15.90;99.90;;;;;;5074666;28;20274;-42
2022/04/15 08:41:28;;;;;;;;;;;16.40;99.90;;;;;;5074904;28;19909;-42
2022/04/15 08:43:54;;;;;;;;;;;16.40;99.90;;;;;;5074376;28;19908;-42
2022/04/15 08:46:21;;;;;;;;;;;16.40;99.90;;;;;;5074538;28;19961;-42
2022/04/15 08:48:48;;;;;;;;;;;16.40;99.90;;;;;;5106954;28;20377;-43
2022/04/15 08:51:14;;;;;;;;;;;15.90;99.90;;;;;;5074170;28;19919;-42
2022/04/15 08:53:41;;;;;;;;;;;15.50;99.90;;;;;;5074054;28;19954;-41
2022/04/15 08:56:06;;;;;;;;;;;15.60;99.90;;;;;;5074360;28;19938;-43
2022/04/15 08:58:32;;;;;;;;;;;15.60;99.90;;;;;;5074429;28;20456;-43
2022/04/15 09:00:57;;;;;;;;;;;15.50;99.90;;;;;;5074271;28;19909;-43
2022/04/15 09:03:23;;;;;;;;;;;15.90;99.90;;;;;;5073502;28;19915;-44
2022/04/15 09:05:51;;;;;;;;;;;16.20;99.90;;;;;;5074067;28;19913;-42
2022/04/15 09:08:16;;;;;;;;;;;16.00;99.90;;;;;;5073675;28;19930;-42
2022/04/15 09:10:42;;;;;;;;;;;15.90;99.90;;;;;;5074229;28;19913;-44
2022/04/15 09:13:18;;;;;;;;;;;16.00;99.90;;;;;;5073817;28;19916;-44
2022/04/15 09:15:43;;;;;;;;;;;16.20;99.90;;;;;;5106641;28;20274;-43
2022/04/15 09:18:09;;;;;;;;;;;16.50;99.90;;;;;;5073832;28;19912;-44
2022/04/15 09:20:34;;;;;;;;;;;16.30;99.90;;;;;;5073973;28;19915;-42
2022/04/15 09:23:10;;;;;;;;;;;16.20;99.90;;;;;;5073947;28;20323;-43
2022/04/15 09:25:36;;;;;;;;;;;16.20;99.90;;;;;;5073831;28;19908;-44
2022/04/15 09:28:02;;;;;;;;;;;16.00;99.90;;;;;;5073449;28;19908;-44
2022/04/15 09:30:31;;;;;;;;;;;16.10;99.90;;;;;;5073444;28;19915;-42
2022/04/15 09:32:58;;;;;;;;;;;16.00;99.90;;;;;;5073872;28;19924;-43
2022/04/15 09:35:24;;;;;;;;;;;16.10;99.90;;;;;;5073816;28;19917;-43
2022/04/15 09:37:51;;;;;;;;;;;16.10;99.90;;;;;;5073456;28;20329;-42
2022/04/15 09:40:18;;;;;;;;;;;16.10;99.90;;;;;;5073542;28;19913;-42
2022/04/15 09:42:47;;;;;;;;;;;16.10;99.90;;;;;;5073734;28;19909;-44
2022/04/15 09:45:17;;;;;;;;;;;16.10;99.90;;;;;;5073904;28;19908;-43
2022/04/15 09:47:43;;;;;;;;;;;16.60;99.90;;;;;;5074185;28;19908;-45
2022/04/15 09:50:25;;;;;;;;;;;17.00;99.90;;;;;;5073932;28;19952;-44
2022/04/15 09:52:53;;;;;;;;;;;17.20;99.90;;;;;;5073848;28;19930;-44
2022/04/15 09:55:23;;;;;;;;;;;17.60;99.90;;;;;;5073643;28;20359;-43
2022/04/15 09:57:49;;;;;;;;;;;17.70;99.90;;;;;;5073292;28;20077;-42
2022/04/15 10:00:16;;;;;;;;;;;17.70;99.90;;;;;;5073449;28;19967;-42
2022/04/15 10:02:42;;;;;;;;;;;17.90;99.90;;;;;;5073549;28;20270;-43
2022/04/15 10:05:08;;;;;;;;;;;18.60;99.90;;;;;;5073043;28;20021;-43
2022/04/15 10:07:34;;;;;;;;;;;18.60;99.90;;;;;;5071717;28;19916;-44
2022/04/15 10:10:00;;;;;;;;;;;18.50;99.90;;;;;;5073244;28;19909;-43
2022/04/15 10:12:26;;;;;;;;;;;18.90;99.90;;;;;;5073239;28;19917;-45
2022/04/15 10:14:52;;;;;;;;;;;19.30;99.90;;;;;;5071672;28;20015;-43
2022/04/15 10:17:20;;;;;;;;;;;19.20;99.90;;;;;;5072627;28;19909;-41
2022/04/15 10:19:46;;;;;;;;;;;18.80;99.90;;;;;;5072855;28;19915;-42
2022/04/15 10:22:12;;;;;;;;;;;18.40;99.90;;;;;;5073350;28;20318;-43
2022/04/15 10:24:37;;;;;;;;;;;18.60;99.90;;;;;;5105457;28;19908;-42
2022/04/15 10:27:04;;;;;;;;;;;17.90;99.90;;;;;;5073134;28;19991;-43
2022/04/15 10:29:29;;;;;;;;;;;17.70;99.90;;;;;;5072811;28;19913;-42
2022/04/15 10:31:55;;;;;;;;;;;18.00;99.90;;;;;;5073394;28;20292;-42
2022/04/15 10:34:21;;;;;;;;;;;18.40;99.90;;;;;;5073060;28;20251;-43
2022/04/15 10:36:50;;;;;;;;;;;18.10;99.90;;;;;;5072869;28;19916;-42
2022/04/15 10:39:19;;;;;;;;;;;18.80;99.90;;;;;;5073314;28;19915;-43
2022/04/15 10:41:45;;;;;;;;;;;19.00;99.90;;;;;;5073314;28;19908;-43
2022/04/15 10:44:11;;;;;;;;;;;18.60;99.90;;;;;;5073150;28;19916;-43
2022/04/15 10:46:37;;;;;;;;;;;18.40;99.90;;;;;;5072636;28;19951;-44
2022/04/15 10:49:18;;;;;;;;;;;18.50;99.90;;;;;;5072643;28;19994;-44
2022/04/15 10:51:43;;;;;;;;;;;18.70;99.90;;;;;;5072765;28;20302;-41
2022/04/15 10:54:28;;;;;;;;;;;18.70;99.90;;;;;;5072999;28;19928;-43
2022/04/15 10:57:01;;;;;;;;;;;18.70;99.90;;;;;;5073283;28;20018;-41
2022/04/15 11:02:18;;;;;;;;;;;17.90;99.90;;;;;;5072833;28;19915;-41
2022/04/15 11:04:47;;;;;;;;;;;17.80;99.90;;;;;;5072526;28;19909;-42
2022/04/15 11:07:17;;;;;;;;;;;18.00;99.90;;;;;;5072077;28;20335;-42
2022/04/15 11:09:43;;;;;;;;;;;18.30;99.90;;;;;;5072515;28;20278;-42
2022/04/15 11:12:10;;;;;;;;;;;18.20;99.90;;;;;;5072856;28;19942;-43
2022/04/15 11:14:36;;;;;;;;;;;18.20;99.90;;;;;;5072537;28;20371;-44
2022/04/15 11:17:02;;;;;;;;;;;18.40;99.90;;;;;;5072168;28;19923;-43
2022/04/15 11:19:29;;;;;;;;;;;18.50;99.90;;;;;;5072495;28;19954;-42
2022/04/15 11:21:55;;;;;;;;;;;18.50;99.90;;;;;;5088074;28;20432;-41
2022/04/15 11:24:22;;;;;;;;;;;18.10;99.90;;;;;;5072405;28;19912;-44
2022/04/15 11:26:48;;;;;;;;;;;18.00;99.90;;;;;;5075358;28;19916;-42
2022/04/15 11:29:14;;;;;;;;;;;17.90;99.90;;;;;;5076239;28;19908;-43
2022/04/15 11:31:41;;;;;;;;;;;18.30;99.90;;;;;;5076172;28;19931;-43
2022/04/15 11:34:07;;;;;;;;;;;18.30;99.90;;;;;;5108335;28;20282;-42
2022/04/15 11:36:37;;;;;;;;;;;18.60;99.70;;;;;;5075590;28;19916;-43
2022/04/15 11:39:04;;;;;;;;;;;19.00;99.30;;;;;;5075826;28;19909;-43
2022/04/15 11:41:30;;;;;;;;;;;19.40;98.40;;;;;;5075476;28;19962;-42
2022/04/15 11:43:57;;;;;;;;;;;19.50;97.70;;;;;;5075608;28;19909;-43
2022/04/15 11:46:23;;;;;;;;;;;18.90;98.20;;;;;;5075819;28;20018;-43
2022/04/15 11:48:50;;;;;;;;;;;19.00;98.70;;;;;;5075957;28;20003;-43
2022/04/15 11:51:17;;;;;;;;;;;19.00;98.80;;;;;;5076149;28;20049;-43
2022/04/15 11:53:43;;;;;;;;;;;19.50;99.80;;;;;;5075711;28;19908;-42
2022/04/15 11:56:09;;;;;;;;;;;20.10;98.40;;;;;;5075691;28;19932;-42
2022/04/15 11:58:35;;;;;;;;;;;20.30;97.30;;;;;;5075775;28;19908;-43
2022/04/15 12:01:01;;;;;;;;;;;19.80;98.90;;;;;;5075632;28;19931;-43
2022/04/15 12:03:27;;;;;;;;;;;20.00;98.60;;;;;;5075239;28;19930;-42
2022/04/15 12:05:54;;;;;;;;;;;20.00;99.00;;;;;;5075371;28;20255;-44
2022/04/15 12:08:20;;;;;;;;;;;19.80;97.90;;;;;;5075522;28;19913;-42
2022/04/15 12:10:47;;;;;;;;;;;20.00;98.30;;;;;;5075396;28;20255;-43
2022/04/15 12:13:14;;;;;;;;;;;19.60;98.10;;;;;;5074844;28;19947;-42
2022/04/15 12:15:40;;;;;;;;;;;19.90;98.80;;;;;;5075138;28;19917;-47
2022/04/15 12:18:07;;;;;;;;;;;20.50;97.60;;;;;;5075154;28;19931;-42
2022/04/15 12:20:33;;;;;;;;;;;20.30;97.60;;;;;;5074714;28;19997;-46
2022/04/15 12:22:59;;;;;;;;;;;19.80;98.30;;;;;;5090576;28;19909;-42
2022/04/15 12:25:25;;;;;;;;;;;19.80;98.80;;;;;;5075126;28;19909;-45
2022/04/15 12:27:53;;;;;;;;;;;19.90;97.80;;;;;;5075429;28;20266;-43
2022/04/15 12:30:39;;;;;;;;;;;19.40;98.90;;;;;;5075086;28;19912;-44
2022/04/15 12:33:05;;;;;;;;;;;19.10;99.10;;;;;;5074140;28;20448;-42
2022/04/15 12:35:30;;;;;;;;;;;19.10;99.70;;;;;;5074603;28;19916;-43
2022/04/15 12:38:00;;;;;;;;;;;18.90;98.90;;;;;;5074070;28;19908;-43
2022/04/15 12:40:29;;;;;;;;;;;18.30;98.50;;;;;;5074976;28;20007;-44
2022/04/15 12:42:55;;;;;;;;;;;17.90;99.60;;;;;;5073346;28;19962;-43
2022/04/15 12:45:21;;;;;;;;;;;18.00;99.10;;;;;;5074091;28;19908;-42
2022/04/15 12:48:03;;;;;;;;;;;18.10;99.10;;;;;;5074304;28;20416;-43
2022/04/15 12:50:31;;;;;;;;;;;18.10;99.50;;;;;;5074458;28;19920;-44
2022/04/15 12:52:57;;;;;;;;;;;18.20;99.50;;;;;;5074346;28;19909;-43
2022/04/15 12:55:29;;;;;;;;;;;18.10;99.90;;;;;;5074308;28;20048;-43
2022/04/15 12:57:55;;;;;;;;;;;18.00;99.90;;;;;;5074650;28;19944;-44
2022/04/15 13:00:21;;;;;;;;;;;18.00;99.90;;;;;;5072713;28;19915;-43
2022/04/15 13:02:47;;;;;;;;;;;18.10;99.90;;;;;;5074185;28;19913;-43
2022/04/15 13:05:13;;;;;;;;;;;18.00;99.90;;;;;;5074017;28;19952;-42
2022/04/15 13:07:38;;;;;;;;;;;17.80;99.90;;;;;;5073870;28;19908;-43
2022/04/15 13:10:05;;;;;;;;;;;18.20;99.90;;;;;;5073822;28;20030;-44
2022/04/15 13:12:31;;;;;;;;;;;18.60;99.90;;;;;;5074360;28;19909;-43
2022/04/15 13:14:56;;;;;;;;;;;18.70;99.30;;;;;;5074208;28;19916;-43
2022/04/15 13:17:22;;;;;;;;;;;19.10;98.80;;;;;;5074079;28;20295;-45
2022/04/15 13:19:48;;;;;;;;;;;19.20;98.80;;;;;;5074140;28;20240;-42
2022/04/15 13:22:14;;;;;;;;;;;19.60;98.70;;;;;;5074064;28;19951;-41
2022/04/15 13:24:40;;;;;;;;;;;19.80;98.10;;;;;;5073444;28;20442;-44
2022/04/15 13:27:06;;;;;;;;;;;20.20;97.20;;;;;;5073811;28;20002;-42
2022/04/15 13:29:32;;;;;;;;;;;19.80;96.40;;;;;;5074225;28;19913;-43
2022/04/15 13:31:58;;;;;;;;;;;19.50;97.20;;;;;;5073564;28;20258;-43
2022/04/15 13:34:23;;;;;;;;;;;19.10;98.30;;;;;;5073840;28;19916;-49
2022/04/15 13:36:49;;;;;;;;;;;19.40;97.40;;;;;;5073272;28;19913;-46
2022/04/15 13:39:17;;;;;;;;;;;19.60;97.20;;;;;;5073050;28;20296;-45
2022/04/15 13:41:42;;;;;;;;;;;19.40;97.80;;;;;;5073680;28;20317;-48
2022/04/15 13:44:08;;;;;;;;;;;19.60;97.50;;;;;;5073373;28;19908;-42
2022/04/15 13:46:34;;;;;;;;;;;20.10;97.60;;;;;;5073707;28;19987;-47
2022/04/15 13:49:00;;;;;;;;;;;20.00;96.90;;;;;;5073472;28;20386;-44
2022/04/15 13:51:26;;;;;;;;;;;20.40;96.20;;;;;;5073396;28;19908;-47
2022/04/15 13:56:39;;;;;;;;;;;20.00;96.80;;;;;;5073005;28;19958;-45
2022/04/15 13:59:05;;;;;;;;;;;19.50;97.30;;;;;;5073649;28;19908;-47
2022/04/15 14:01:31;;;;;;;;;;;19.30;97.70;;;;;;5073171;28;19916;-45
2022/04/15 14:03:57;;;;;;;;;;;19.20;98.20;;;;;;5106060;28;20296;-48
2022/04/15 14:06:22;;;;;;;;;;;18.90;98.50;;;;;;5073475;28;19909;-45
2022/04/15 14:08:48;;;;;;;;;;;18.60;98.30;;;;;;5073443;28;20002;-45
2022/04/15 14:11:14;;;;;;;;;;;18.50;98.80;;;;;;5073143;28;19908;-44
2022/04/15 14:13:43;;;;;;;;;;;18.40;98.90;;;;;;5073169;28;20312;-44
2022/04/15 14:16:12;;;;;;;;;;;18.60;98.80;;;;;;5088944;28;19919;-45